Time;durP1;ratioP1;P1;durP2;ratioP2;P2;SDS_P1;SDS_P2;PMS_P1;PMS_P2;Temp;Humidity;BMP_temperature;BMP_pressure;BME280_temperature;BME280_humidity;BME280_pressure;Samples;Min_cycle;Max_cycle;Signal;HPM_P1;HPM_P2
2021/10/06 04:39:01;;;;;;;14.20;8.08;;;;;;;6.24;84.19;101882.97;1730255;80;21083;-32
2021/10/06 04:41:28;;;;;;;11.45;7.60;;;;;;;6.28;84.07;101884.47;1686319;84;21527;-37
2021/10/06 04:43:55;;;;;;;15.13;8.40;;;;;;;6.32;84.00;101886.39;1677728;85;21511;-37
2021/10/06 04:46:22;;;;;;;10.10;6.75;;;;;;;6.37;83.93;101892.64;1684076;84;21011;-37
2021/10/06 04:48:49;;;;;;;13.08;8.08;;;;;;;6.46;83.82;101901.67;1675611;84;21082;-36
2021/10/06 04:51:15;;;;;;;13.10;7.53;;;;;;;6.52;83.65;101898.03;1667828;84;21054;-37
2021/10/06 04:53:42;;;;;;;16.73;8.90;;;;;;;6.58;83.52;101898.28;1659177;84;21554;-33
2021/10/06 04:56:09;;;;;;;13.50;8.03;;;;;;;6.66;83.36;101903.38;1657946;84;21507;-34
2021/10/06 04:58:36;;;;;;;14.93;8.10;;;;;;;6.75;83.17;101901.58;1653133;85;21139;-37
2021/10/06 05:01:03;;;;;;;11.85;7.15;;;;;;;6.83;82.90;101906.67;1663725;85;21024;-38
2021/10/06 05:03:30;;;;;;;10.43;7.40;;;;;;;6.90;82.67;101903.52;1666525;85;21071;-37
2021/10/06 05:05:57;;;;;;;18.52;8.30;;;;;;;6.98;82.31;101908.60;1668375;84;20992;-32
2021/10/06 05:08:25;;;;;;;13.18;7.85;;;;;;;7.05;82.06;101913.63;1666905;84;21011;-35
2021/10/06 05:10:52;;;;;;;12.75;8.10;;;;;;;7.12;81.82;101909.14;1682663;83;21055;-36
2021/10/06 05:13:20;;;;;;;21.17;9.00;;;;;;;7.19;81.54;101906.86;1709420;82;21076;-35
2021/10/06 05:15:49;;;;;;;12.78;8.13;;;;;;;7.27;81.28;101916.67;1670265;85;22023;-31
2021/10/06 05:18:15;;;;;;;15.63;8.95;;;;;;;7.35;81.00;101912.64;1727460;81;21382;-32
2021/10/06 05:20:42;;;;;;;11.20;7.55;;;;;;;7.41;80.75;101921.99;1718207;81;21516;-31
2021/10/06 05:23:09;;;;;;;10.32;8.23;;;;;;;7.49;80.49;101921.89;1723479;80;21029;-36
2021/10/06 05:33:17;;;;;;;14.45;8.05;;;;;;;7.74;79.45;101925.00;1708491;80;21012;-31
2021/10/06 05:36:57;;;;;;;16.12;8.28;;;;;;;7.86;78.86;101921.53;1706410;82;21065;-36
2021/10/06 05:39:49;;;;;;;18.12;8.85;;;;;;;7.97;78.01;101929.33;1665809;84;21007;-31
2021/10/06 05:43:04;;;;;;;;;;;;;;;8.08;77.69;101935.36;1656999;84;21009;-31
2021/10/06 05:45:42;;;;;;;18.98;8.18;;;;;;;8.18;77.34;101933.14;1648871;85;20120;-36
2021/10/06 05:48:09;;;;;;;17.17;7.90;;;;;;;8.32;76.55;101932.31;1707351;82;21351;-31
2021/10/06 05:50:36;;;;;;;17.65;7.92;;;;;;;8.42;75.58;101928.34;1708038;82;21036;-36
2021/10/06 05:53:03;;;;;;;15.13;7.85;;;;;;;8.52;74.46;101923.89;1706876;82;21021;-32
2021/10/06 05:55:31;;;;;;;15.63;8.33;;;;;;;8.62;73.84;101929.02;1719753;81;20996;-36
2021/10/06 05:57:59;;;;;;;13.43;7.42;;;;;;;8.71;73.07;101930.64;1672967;85;21047;-36
2021/10/06 06:00:26;;;;;;;15.60;7.72;;;;;;;8.77;72.74;101930.84;1708283;82;21006;-36
2021/10/06 06:02:53;;;;;;;13.75;7.35;;;;;;;8.84;72.27;101935.84;1671142;85;21020;-37
2021/10/06 06:05:21;;;;;;;14.25;7.00;;;;;;;8.93;71.98;101935.73;1707635;82;21013;-33
2021/10/06 06:07:52;;;;;;;16.42;7.50;;;;;;;8.99;71.46;101937.24;1708216;82;21064;-33
2021/10/06 06:10:24;;;;;;;11.18;7.33;;;;;;;9.07;71.04;101933.56;1710291;82;21052;-36
2021/10/06 06:12:51;;;;;;;16.10;7.28;;;;;;;9.14;70.47;101937.25;1678693;84;21031;-36
2021/10/06 06:15:18;;;;;;;10.18;6.75;;;;;;;9.21;70.06;101931.37;1649523;85;21934;-36
2021/10/06 06:17:47;;;;;;;14.40;7.37;;;;;;;9.29;69.41;101936.44;1673701;83;21247;-31
2021/10/06 06:20:53;;;;;;;15.00;6.45;;;;;;;9.35;68.97;101931.41;1680384;82;22049;-37
2021/10/06 06:39:56;;;;;;;8.53;5.85;;;;;;;9.89;66.03;101928.64;1668149;84;21416;-32
2021/10/06 06:42:52;;;;;;;12.82;5.53;;;;;;;10.01;64.83;101939.88;1665306;84;21488;-37
2021/10/06 06:45:37;;;;;;;11.35;5.80;;;;;;;10.04;64.32;101945.20;1662410;84;21068;-33
2021/10/06 06:48:04;;;;;;;14.98;6.12;;;;;;;10.08;64.05;101935.27;1665297;84;20998;-31
2021/10/06 06:50:37;;;;;;;10.93;6.00;;;;;;;10.17;64.24;101935.54;1667290;85;20960;-33
2021/10/06 06:53:04;;;;;;;11.68;5.15;;;;;;;10.29;63.08;101929.79;1724530;81;20996;-32
2021/10/06 06:55:32;;;;;;;9.05;4.60;;;;;;;10.37;62.44;101927.83;1678231;83;20998;-32
2021/10/06 06:57:59;;;;;;;11.68;5.20;;;;;;;10.43;62.26;101931.03;1718875;82;21133;-38
2021/10/06 07:00:26;;;;;;;13.15;4.85;;;;;;;10.47;62.25;101919.80;1667868;84;20979;-37
2021/10/06 07:02:53;;;;;;;7.92;5.00;;;;;;;10.51;62.22;101924.70;1707348;82;21630;-37
2021/10/06 07:05:20;;;;;;;7.47;4.97;;;;;;;10.57;60.53;101919.63;1679853;83;21023;-33
2021/10/06 07:07:51;;;;;;;9.70;4.60;;;;;;;10.58;60.50;101920.09;1662747;85;21396;-36
2021/10/06 07:10:21;;;;;;;10.78;5.58;;;;;;;10.62;60.74;101914.09;1695371;82;21041;-31
2021/10/06 07:12:49;;;;;;;9.25;5.15;;;;;;;10.66;60.79;101914.19;1717305;81;21499;-34
2021/10/06 07:15:17;;;;;;;12.45;5.10;;;;;;;10.75;60.32;101916.59;1674962;83;21086;-33
2021/10/06 07:17:47;;;;;;;10.80;4.87;;;;;;;10.87;60.31;101914.27;1719653;82;20989;-36
2021/10/06 07:20:14;;;;;;;7.30;4.28;;;;;;;10.98;59.07;101907.98;1719077;80;21083;-36
2021/10/06 07:22:46;;;;;;;13.15;7.70;;;;;;;11.07;57.60;101901.64;1711898;82;21496;-32
2021/10/06 07:25:15;;;;;;;19.23;10.40;;;;;;;11.15;57.10;101900.98;1651705;84;21053;-32
2021/10/06 07:27:44;;;;;;;14.40;5.83;;;;;;;11.25;56.18;101907.33;1648487;85;21626;-37
2021/10/06 07:33:38;;;;;;;6.47;3.92;;;;;;;11.42;54.27;101900.73;1674405;83;21042;-36
2021/10/06 07:45:10;;;;;;;9.28;3.72;;;;;;;11.78;52.11;101898.42;1670471;84;21386;-37
2021/10/06 07:49:20;;;;;;;6.62;3.67;;;;;;;11.97;51.69;101887.90;1674542;84;21007;-37
2021/10/06 07:52:23;;;;;;;6.87;3.77;;;;;;;12.12;49.90;101891.25;1670256;84;21077;-32
2021/10/06 08:03:06;;;;;;;7.58;3.12;;;;;;;12.34;48.47;101878.95;1667294;84;21456;-36
2021/10/06 08:05:51;;;;;;;7.53;3.92;;;;;;;12.44;47.35;101877.39;1665317;84;21094;-32
2021/10/06 08:08:17;;;;;;;10.93;3.60;;;;;;;12.48;46.75;101877.91;1669226;84;20992;-31
2021/10/06 08:11:16;;;;;;;6.42;3.17;;;;;;;12.53;45.77;101880.62;1667746;84;21090;-36
2021/10/06 08:14:37;;;;;;;6.92;3.52;;;;;;;12.58;45.68;101878.52;1667545;84;21109;-32
2021/10/06 08:17:10;;;;;;;12.15;4.28;;;;;;;12.64;43.97;101871.14;1670096;84;21681;-36
2021/10/06 08:19:56;;;;;;;5.42;3.42;;;;;;;12.65;44.19;101867.26;1663872;84;21393;-36
2021/10/06 08:23:11;;;;;;;5.78;3.67;;;;;;;12.68;43.68;101869.92;1727147;81;21599;-36
2021/10/06 08:26:07;;;;;;;10.05;2.92;;;;;;;12.72;43.70;101878.30;1708038;81;21019;-32
2021/10/06 08:28:34;;;;;;;8.58;4.72;;;;;;;12.78;43.21;101870.95;1724263;81;21135;-32
2021/10/06 08:31:01;;;;;;;5.35;3.58;;;;;;;12.84;43.32;101871.48;1682457;83;21416;-32
2021/10/06 08:33:28;;;;;;;4.83;3.37;;;;;;;12.91;43.72;101868.97;1653124;85;21652;-32
2021/10/06 08:35:55;;;;;;;7.28;2.75;;;;;;;13.00;43.00;101861.67;1708304;82;21052;-33
2021/10/06 08:38:22;;;;;;;5.03;2.65;;;;;;;13.07;42.54;101863.95;1708566;82;21052;-32
2021/10/06 08:40:49;;;;;;;6.95;2.62;;;;;;;13.12;41.94;101862.28;1697729;82;21038;-32
2021/10/06 08:43:17;;;;;;;4.05;2.87;;;;;;;13.16;41.64;101861.04;1680335;83;21286;-32
2021/10/06 08:45:45;;;;;;;3.75;2.87;;;;;;;13.21;42.20;101850.59;1656613;84;21037;-32
2021/10/06 08:48:11;;;;;;;4.75;2.67;;;;;;;13.28;42.23;101854.66;1692167;83;21399;-33
2021/10/06 08:50:38;;;;;;;4.85;2.72;;;;;;;13.41;41.18;101854.83;1666092;83;21066;-37
2021/10/06 08:53:05;;;;;;;5.90;3.35;;;;;;;13.47;40.12;101849.64;1689543;83;21194;-32
2021/10/06 08:55:32;;;;;;;4.70;2.62;;;;;;;13.51;40.17;101852.73;1700396;83;21015;-32
2021/10/06 08:58:04;;;;;;;5.47;3.40;;;;;;;13.51;39.59;101849.71;1654140;84;21041;-32
2021/10/06 09:00:53;;;;;;;9.43;3.83;;;;;;;13.55;40.27;101843.60;1704030;82;21609;-33
2021/10/06 09:03:34;;;;;;;9.75;3.30;;;;;;;13.63;39.52;101840.20;1677656;83;21664;-32
2021/10/06 09:06:14;;;;;;;8.37;1.90;;;;;;;13.71;39.77;101845.11;1674228;83;21039;-31
2021/10/06 09:08:46;;;;;;;4.83;2.17;;;;;;;13.76;38.88;101842.11;1638350;85;21758;-32
2021/10/06 09:11:13;;;;;;;3.12;2.05;;;;;;;13.75;38.09;101846.48;1688112;83;20994;-32
2021/10/06 09:13:45;;;;;;;3.52;2.00;;;;;;;13.74;38.54;101839.87;1655973;85;21081;-32
2021/10/06 09:16:12;;;;;;;4.20;2.12;;;;;;;13.74;37.43;101835.92;1662785;84;21023;-37
2021/10/06 09:19:43;;;;;;;3.42;1.98;;;;;;;13.69;37.32;101828.00;1637512;83;21107;-30
2021/10/06 09:22:47;;;;;;;5.78;2.12;;;;;;;13.69;37.55;101833.27;1658167;84;21412;-36
2021/10/06 09:25:36;;;;;;;2.17;1.90;;;;;;;13.70;37.23;101824.50;1632561;85;21055;-34
2021/10/06 09:28:22;;;;;;;5.83;1.90;;;;;;;13.70;36.61;101819.25;1634035;84;20993;-36
2021/10/06 09:30:56;;;;;;;6.42;1.82;;;;;;;13.74;37.10;101830.66;1692439;83;21587;-36
2021/10/06 09:33:27;;;;;;;5.75;2.12;;;;;;;13.77;36.36;101815.81;1660266;84;21418;-32
2021/10/06 09:36:27;;;;;;;6.42;1.80;;;;;;;13.75;35.08;101814.92;1689489;83;21087;-37
2021/10/06 09:38:56;;;;;;;2.40;1.90;;;;;;;13.71;36.12;101821.00;1718176;82;21041;-36
2021/10/06 09:41:33;;;;;;;3.77;1.80;;;;;;;13.75;36.06;101809.66;1719655;81;20981;-32
2021/10/06 09:44:12;;;;;;;3.27;2.33;;;;;;;13.81;36.12;101822.00;1732414;81;21047;-31
2021/10/06 09:46:48;;;;;;;5.03;2.00;;;;;;;13.88;35.53;101815.93;1713501;82;21038;-32
2021/10/06 09:49:31;;;;;;;3.95;1.85;;;;;;;13.91;34.53;101815.06;1731060;81;21023;-32
2021/10/06 09:52:22;;;;;;;1.65;1.55;;;;;;;13.89;32.24;101803.66;1732865;81;21020;-32
2021/10/06 09:55:07;;;;;;;3.40;2.15;;;;;;;13.88;32.64;101811.11;1727143;81;21518;-36
2021/10/06 09:57:40;;;;;;;5.33;1.95;;;;;;;13.96;33.75;101812.93;1731163;81;21084;-31
2021/10/06 10:00:13;;;;;;;5.60;1.30;;;;;;;14.07;33.73;101806.02;1686489;83;21033;-32
2021/10/06 10:02:41;;;;;;;3.92;1.40;;;;;;;14.24;31.32;101809.25;1712454;82;21056;-31
2021/10/06 10:05:09;;;;;;;3.83;2.60;;;;;;;14.40;31.98;101799.30;1719937;81;21111;-36
2021/10/06 10:07:36;;;;;;;4.00;2.05;;;;;;;14.59;32.25;101793.33;1724814;81;21447;-37
2021/10/06 10:10:08;;;;;;;9.83;2.10;;;;;;;14.78;31.94;101798.28;1725421;80;21044;-32
2021/10/06 10:12:36;;;;;;;9.73;1.77;;;;;;;15.06;31.14;101800.65;1721826;81;21036;-32
2021/10/06 10:15:19;;;;;;;4.90;1.50;;;;;;;15.50;31.06;101799.09;1724342;81;21100;-36
2021/10/06 10:18:10;;;;;;;4.90;1.62;;;;;;;16.04;29.54;101790.45;1687217;83;21536;-33
2021/10/06 10:21:19;;;;;;;1.45;1.35;;;;;;;16.78;28.83;101786.05;1683446;83;21071;-32
2021/10/06 10:24:22;;;;;;;4.17;1.90;;;;;;;17.31;27.70;101786.33;1713074;82;21103;-32
2021/10/06 10:27:37;;;;;;;7.33;3.10;;;;;;;17.75;26.24;101787.47;1705000;82;21024;-31
2021/10/06 10:30:35;;;;;;;8.20;1.70;;;;;;;18.15;25.98;101773.05;1673951;84;21098;-32
2021/10/06 10:33:41;;;;;;;7.50;1.62;;;;;;;18.63;25.54;101785.45;1724731;81;21507;-31
2021/10/06 10:36:34;;;;;;;8.23;1.80;;;;;;;19.16;25.37;101785.34;1729411;82;21409;-36
2021/10/06 10:39:02;;;;;;;7.40;2.02;;;;;;;19.64;24.09;101778.09;1729774;81;21598;-36
2021/10/06 10:41:54;;;;;;;8.35;2.05;;;;;;;19.95;23.69;101780.77;1721873;81;21557;-31
2021/10/06 10:44:25;;;;;;;5.53;2.20;;;;;;;20.14;23.60;101773.80;1711985;82;21060;-35
2021/10/06 10:47:02;;;;;;;7.90;1.90;;;;;;;20.28;23.50;101780.66;1711524;82;21013;-31
2021/10/06 10:49:47;;;;;;;11.60;2.20;;;;;;;20.44;23.51;101772.39;1707210;82;21568;-36
2021/10/06 10:52:15;;;;;;;11.70;1.95;;;;;;;20.72;23.54;101766.62;1705528;82;21383;-32
2021/10/06 10:54:46;;;;;;;6.37;1.60;;;;;;;20.99;22.22;101766.55;1712080;82;21666;-37
2021/10/06 10:57:29;;;;;;;5.72;1.65;;;;;;;20.99;22.22;101766.55;1681736;83;21010;-32
2021/10/06 11:00:03;;;;;;;7.92;1.65;;;;;;;21.00;21.89;101764.30;1690240;82;22013;-33
2021/10/06 11:02:34;;;;;;;8.13;2.12;;;;;;;20.93;22.55;101758.66;1713414;82;21016;-32
2021/10/06 11:05:16;;;;;;;10.23;1.77;;;;;;;21.06;22.55;101760.19;1707562;82;21045;-32
2021/10/06 11:08:37;;;;;;;18.92;2.52;;;;;;;21.17;22.58;101758.64;1701851;82;21588;-33
2021/10/06 11:11:15;;;;;;;4.65;1.67;;;;;;;21.39;21.31;101750.62;1699992;82;22586;-32
2021/10/06 11:14:20;;;;;;;10.72;2.02;;;;;;;21.16;21.74;101759.09;1697805;82;21668;-32
2021/10/06 11:17:25;;;;;;;6.87;1.65;;;;;;;21.09;21.85;101758.78;1701197;82;21556;-32
2021/10/06 11:24:17;;;;;;;6.30;1.65;;;;;;;20.95;22.44;101747.55;1675282;83;21609;-32
2021/10/06 11:30:36;;;;;;;5.28;2.00;;;;;;;20.38;22.50;101753.90;1682856;83;21042;-32
2021/10/06 11:33:26;;;;;;;9.50;2.33;;;;;;;19.51;23.05;101753.05;1721470;81;21348;-32
2021/10/06 11:36:15;;;;;;;7.20;1.75;;;;;;;18.88;24.04;101748.08;1720607;81;21525;-37
2021/10/06 11:38:46;;;;;;;20.10;2.33;;;;;;;18.50;24.81;101749.80;1717968;81;20981;-32
2021/10/06 11:41:13;;;;;;;7.87;1.90;;;;;;;18.14;24.70;101747.45;1673060;83;20995;-32
2021/10/06 11:43:51;;;;;;;5.40;2.05;;;;;;;17.77;25.36;101757.01;1705257;82;21053;-37
2021/10/06 11:46:29;;;;;;;8.45;2.17;;;;;;;17.47;25.81;101750.98;1680078;85;20987;-31
2021/10/06 11:48:56;;;;;;;6.70;1.98;;;;;;;17.18;26.18;101749.80;1718238;82;21053;-32
2021/10/06 11:51:40;;;;;;;5.72;1.80;;;;;;;16.97;26.48;101744.59;1729712;81;20996;-31
2021/10/06 11:54:08;;;;;;;4.67;2.10;;;;;;;16.84;26.65;101744.20;1680813;83;21050;-36
2021/10/06 11:56:36;;;;;;;8.58;1.72;;;;;;;16.70;27.33;101742.89;1694185;82;21005;-37
2021/10/06 11:59:18;;;;;;;8.68;2.60;;;;;;;16.60;27.71;101741.14;1728905;81;21044;-38
2021/10/06 12:01:54;;;;;;;5.25;2.50;;;;;;;16.59;27.93;101745.99;1722331;82;20956;-38
2021/10/06 12:04:26;;;;;;;3.62;1.98;;;;;;;16.45;28.11;101745.55;1673860;83;21435;-36
2021/10/06 12:07:00;;;;;;;3.87;1.77;;;;;;;16.34;28.17;101743.36;1691634;82;21454;-33
2021/10/06 12:09:34;;;;;;;3.92;1.87;;;;;;;16.30;28.44;101748.67;1683463;83;21899;-32
2021/10/06 12:12:04;;;;;;;6.53;2.08;;;;;;;16.34;27.95;101756.56;1695249;83;21548;-32
2021/10/06 12:15:00;;;;;;;7.87;1.92;;;;;;;16.31;27.85;101758.34;1734658;81;21081;-33
2021/10/06 12:17:30;;;;;;;7.83;1.82;;;;;;;16.23;28.23;101752.64;1676106;83;20974;-31
2021/10/06 12:20:05;;;;;;;11.08;2.42;;;;;;;16.22;28.51;101749.53;1647233;83;21017;-32
2021/10/06 12:22:43;;;;;;;4.20;2.40;;;;;;;16.29;28.80;101747.77;1662978;84;20975;-33
2021/10/06 12:25:15;;;;;;;5.85;1.92;;;;;;;16.34;28.83;101759.65;1670868;84;21130;-33
2021/10/06 12:27:48;;;;;;;3.60;1.85;;;;;;;16.20;28.72;101764.50;1660015;84;20952;-32
2021/10/06 12:30:21;;;;;;;;;;;;;;;16.04;29.06;101752.62;1619620;86;21093;-32
2021/10/06 12:32:53;;;;;;;5.20;1.92;;;;;;;15.88;29.20;101747.31;1618574;87;20132;-31
2021/10/06 12:35:21;;;;;;;8.90;2.33;;;;;;;15.72;29.34;101746.00;1623450;86;21138;-32
2021/10/06 12:38:04;;;;;;;2.85;1.95;;;;;;;15.67;29.40;101749.94;1632732;86;21606;-31
2021/10/06 12:40:49;;;;;;;12.37;2.10;;;;;;;15.65;29.73;101750.36;1627949;86;21094;-32
2021/10/06 12:43:25;;;;;;;5.53;1.82;;;;;;;15.66;29.66;101747.74;1629753;86;21061;-32
2021/10/06 12:46:11;;;;;;;5.87;1.87;;;;;;;15.61;29.59;101745.94;1636604;86;21108;-31
2021/10/06 12:48:49;;;;;;;9.55;1.67;;;;;;;15.47;29.14;101742.37;1635696;86;21102;-39
2021/10/06 12:51:26;;;;;;;7.28;1.45;;;;;;;15.31;28.95;101747.62;1648134;85;21101;-37
2021/10/06 12:54:05;;;;;;;7.17;1.82;;;;;;;15.34;29.21;101745.41;1644130;86;21573;-37
2021/10/06 12:56:41;;;;;;;4.45;2.15;;;;;;;15.52;29.21;101741.95;1634037;86;21114;-33
2021/10/06 12:59:11;;;;;;;7.50;2.00;;;;;;;15.53;28.94;101743.70;1636334;86;21151;-37
2021/10/06 13:01:43;;;;;;;7.60;1.90;;;;;;;15.52;28.22;101742.83;1643816;87;21574;-37
2021/10/06 13:04:12;;;;;;;4.35;1.70;;;;;;;15.71;28.36;101741.13;1644563;86;21859;-38
2021/10/06 13:06:40;;;;;;;7.25;1.75;;;;;;;16.12;28.45;101749.52;1652279;83;21538;-37
2021/10/06 13:09:07;;;;;;;5.75;1.90;;;;;;;16.39;27.54;101746.88;1698765;84;21026;-37
2021/10/06 13:11:35;;;;;;;5.20;2.00;;;;;;;16.34;27.25;101736.76;1694089;84;21034;-37
2021/10/06 13:14:02;;;;;;;7.12;2.17;;;;;;;16.23;27.33;101738.11;1679632;85;21015;-37
2021/10/06 13:16:31;;;;;;;5.45;1.90;;;;;;;16.19;26.98;101736.34;1684207;85;21078;-32
2021/10/06 13:18:59;;;;;;;5.47;1.72;;;;;;;16.25;26.37;101731.50;1675751;85;21133;-37
2021/10/06 13:21:27;;;;;;;14.83;2.25;;;;;;;16.13;26.67;101731.52;1683650;85;21038;-32
2021/10/06 13:23:54;;;;;;;8.40;2.52;;;;;;;15.85;27.40;101729.30;1686437;85;21488;-37
2021/10/06 13:26:21;;;;;;;6.40;1.90;;;;;;;15.68;27.79;101735.42;1686502;85;21110;-34
2021/10/06 13:28:49;;;;;;;15.68;2.47;;;;;;;15.77;27.98;101728.39;1685992;84;21034;-37
2021/10/06 13:31:16;;;;;;;5.45;2.22;;;;;;;15.90;28.05;101729.74;1685943;85;21046;-32
2021/10/06 13:33:43;;;;;;;6.35;2.33;;;;;;;15.89;28.16;101731.06;1686197;84;21050;-32
2021/10/06 13:36:12;;;;;;;5.05;2.20;;;;;;;15.80;28.30;101729.73;1684906;85;21186;-37
2021/10/06 13:38:40;;;;;;;13.53;2.60;;;;;;;15.72;28.66;101731.48;1684124;85;21050;-34
2021/10/06 13:41:07;;;;;;;6.10;2.15;;;;;;;15.60;27.92;101732.31;1685749;85;21030;-33
2021/10/06 13:43:35;;;;;;;15.32;2.33;;;;;;;15.39;27.35;101735.33;1680283;85;21567;-32
2021/10/06 13:46:03;;;;;;;5.67;2.65;;;;;;;15.22;28.11;101741.42;1672883;85;21048;-32
2021/10/06 13:48:33;;;;;;;8.70;2.42;;;;;;;15.12;28.57;101735.22;1670362;85;21043;-32
2021/10/06 13:50:59;;;;;;;6.62;2.15;;;;;;;15.09;28.43;101745.33;1666918;84;21037;-37
2021/10/06 13:53:26;;;;;;;6.08;1.70;;;;;;;15.12;29.03;101745.77;1661353;85;21519;-32
2021/10/06 13:55:53;;;;;;;9.90;2.40;;;;;;;15.11;29.17;101747.52;1674472;85;21004;-36
2021/10/06 13:58:19;;;;;;;7.53;2.00;;;;;;;15.16;29.18;101747.55;1665324;85;21010;-36
2021/10/06 14:00:47;;;;;;;3.30;1.52;;;;;;;15.26;28.95;101744.08;1668883;85;21475;-32
2021/10/06 14:03:14;;;;;;;7.78;2.30;;;;;;;15.40;28.68;101740.16;1677726;85;20967;-31
2021/10/06 14:05:40;;;;;;;4.53;1.85;;;;;;;15.52;28.06;101740.62;1676796;85;21019;-32
2021/10/06 14:08:07;;;;;;;6.08;1.60;;;;;;;15.55;27.75;101741.97;1678513;85;20979;-32
2021/10/06 14:10:35;;;;;;;5.22;1.90;;;;;;;15.51;27.75;101747.66;1678092;85;21547;-36
2021/10/06 14:13:02;;;;;;;8.18;1.72;;;;;;;15.48;27.92;101749.40;1678842;85;20987;-36
2021/10/06 14:15:30;;;;;;;4.10;1.70;;;;;;;15.37;27.81;101745.44;1667138;85;21107;-36
2021/10/06 14:17:57;;;;;;;7.87;1.90;;;;;;;15.32;27.88;101750.69;1673113;85;21000;-36
2021/10/06 14:20:24;;;;;;;13.15;2.10;;;;;;;15.46;27.87;101757.31;1674862;85;21051;-37
2021/10/06 14:22:51;;;;;;;7.47;1.80;;;;;;;15.62;27.82;101759.16;1678698;84;21004;-36
2021/10/06 14:25:18;;;;;;;7.03;2.17;;;;;;;15.63;27.69;101758.72;1678366;85;21063;-36
2021/10/06 14:27:45;;;;;;;9.68;2.12;;;;;;;15.53;27.76;101756.89;1678724;85;21039;-31
2021/10/06 14:30:12;;;;;;;7.15;3.08;;;;;;;15.47;28.08;101752.48;1678598;85;21625;-31
2021/10/06 14:32:40;;;;;;;4.25;1.85;;;;;;;15.54;28.12;101750.73;1680738;84;21051;-37
2021/10/06 14:35:08;;;;;;;7.78;2.37;;;;;;;15.70;28.06;101753.89;1678918;85;21051;-36
2021/10/06 14:37:35;;;;;;;8.20;3.15;;;;;;;15.91;27.90;101757.02;1679033;85;21026;-36
2021/10/06 14:40:06;;;;;;;19.10;2.22;;;;;;;16.11;27.64;101759.20;1679157;85;21043;-36
2021/10/06 14:42:34;;;;;;;5.17;2.02;;;;;;;16.37;27.05;101757.02;1678871;85;21086;-36
